Time,TemperatureF,DewpointF,PressureIn,WindDirection,WindDirectionDegrees,WindSpeedMPH,WindSpeedGustMPH,Humidity,HourlyPrecipIn,Conditions,Clouds,dailyrainin,SoftwareType,DateUTC
2013-10-19 00:14:00,39.0,36.0,29.91,NNE,32,0.0,2.0,90,0.00,,,0.35,,2013-10-19 04:14:00,
2013-10-19 00:24:00,39.0,37.0,29.91,NNE,32,0.0,0.0,91,0.00,,,0.35,,2013-10-19 04:24:00,
2013-10-19 00:44:00,39.0,37.0,29.91,ESE,111,0.0,3.0,91,0.00,,,0.25,,2013-10-19 04:44:00,
2013-10-19 00:54:00,38.0,36.0,29.92,SE,124,0.0,2.0,91,0.00,,,0.25,,2013-10-19 04:54:00,
2013-10-19 01:13:00,38.0,36.0,29.91,SE,124,0.0,2.0,92,0.00,,,0.25,,2013-10-19 05:13:00,
2013-10-19 01:23:00,38.0,36.0,29.91,SW,217,1.0,3.0,92,0.00,,,0.25,,2013-10-19 05:23:00,
2013-10-19 01:42:00,38.0,36.0,29.92,SW,217,0.0,2.0,93,0.00,,,0.00,,2013-10-19 05:42:00,
2013-10-19 01:52:00,37.0,35.0,29.92,East,85,1.0,3.0,93,0.00,,,0.00,,2013-10-19 05:52:00,
2013-10-19 02:12:00,37.0,35.0,29.92,East,96,1.0,5.0,93,0.00,,,0.00,,2013-10-19 06:12:00,
2013-10-19 02:22:00,37.0,35.0,29.92,West,269,2.0,5.0,93,0.00,,,0.00,,2013-10-19 06:22:00,
2013-10-19 02:42:00,37.0,35.0,29.92,SW,227,0.0,3.0,94,0.00,,,0.00,,2013-10-19 06:42:00,
2013-10-19 02:52:00,37.0,35.0,29.91,ESE,105,0.0,2.0,92,0.00,,,0.00,,2013-10-19 06:52:00,
2013-10-19 03:11:00,36.0,34.0,29.92,ESE,105,0.0,1.0,93,0.00,,,0.00,,2013-10-19 07:11:00,
2013-10-19 03:22:00,36.0,34.0,29.91,ESE,105,0.0,2.0,93,0.00,,,0.00,,2013-10-19 07:22:00,
2013-10-19 03:42:00,36.0,34.0,29.91,ESE,105,0.0,2.0,94,0.00,,,0.00,,2013-10-19 07:42:00,
2013-10-19 03:52:00,35.0,33.0,29.92,ESE,105,0.0,2.0,94,0.00,,,0.00,,2013-10-19 07:52:00,
2013-10-19 04:11:00,35.0,33.0,29.92,ESE,102,0.0,3.0,94,0.00,,,0.00,,2013-10-19 08:11:00,
2013-10-19 04:22:00,35.0,33.0,29.92,East,96,0.0,2.0,94,0.00,,,0.00,,2013-10-19 08:22:00,
2013-10-19 04:42:00,35.0,33.0,29.92,East,96,0.0,1.0,94,0.00,,,0.00,,2013-10-19 08:42:00,
2013-10-19 04:52:00,35.0,33.0,29.93,East,96,1.0,3.0,94,0.00,,,0.00,,2013-10-19 08:52:00,
2013-10-19 05:12:00,35.0,33.0,29.93,SE,126,0.0,3.0,94,0.00,,,0.00,,2013-10-19 09:12:00,
2013-10-19 05:22:00,35.0,33.0,29.93,SE,132,0.0,2.0,94,0.00,,,0.00,,2013-10-19 09:22:00,
2013-10-19 05:43:00,35.0,33.0,29.94,East,83,0.0,3.0,94,0.00,,,0.00,,2013-10-19 09:43:00,
2013-10-19 05:54:00,35.0,33.0,29.94,ESE,111,0.0,3.0,94,0.00,,,0.00,,2013-10-19 09:54:00,
2013-10-19 06:03:00,35.0,33.0,29.94,ESE,111,0.0,3.0,94,0.00,,,0.00,,2013-10-19 10:03:00,
2013-10-19 06:13:00,35.0,33.0,29.94,ESE,111,0.0,3.0,94,0.00,,,0.00,,2013-10-19 10:13:00,
2013-10-19 06:23:00,34.0,32.0,29.94,East,96,0.0,2.0,94,0.00,,,0.00,,2013-10-19 10:23:00,
2013-10-19 06:42:00,34.0,32.0,29.93,East,96,0.0,2.0,94,0.00,,,0.00,,2013-10-19 10:42:00,
2013-10-19 06:53:00,34.0,33.0,29.94,East,98,1.0,3.0,95,0.00,,,0.00,,2013-10-19 10:53:00,
2013-10-19 07:12:00,34.0,33.0,29.92,East,91,2.0,5.0,95,0.00,,,0.00,,2013-10-19 11:12:00,
2013-10-19 07:22:00,34.0,33.0,29.93,East,91,0.0,0.0,95,0.00,,,0.00,,2013-10-19 11:22:00,
2013-10-19 07:42:00,34.0,33.0,29.93,East,91,0.0,2.0,95,0.00,,,0.00,,2013-10-19 11:42:00,
2013-10-19 07:52:00,34.0,33.0,29.93,East,91,0.0,2.0,95,0.00,,,0.00,,2013-10-19 11:52:00,
2013-10-19 08:12:00,34.0,33.0,29.94,East,91,0.0,2.0,95,0.00,,,0.00,,2013-10-19 12:12:00,
2013-10-19 08:22:00,34.0,33.0,29.93,East,91,0.0,2.0,95,0.00,,,0.00,,2013-10-19 12:22:00,
2013-10-19 08:43:00,35.0,34.0,29.93,ESE,117,0.0,2.0,95,0.00,,,0.00,,2013-10-19 12:43:00,
2013-10-19 08:52:00,36.0,34.0,29.93,East,99,0.0,2.0,94,0.00,,,0.00,,2013-10-19 12:52:00,
2013-10-19 09:12:00,38.0,36.0,29.94,East,99,0.0,1.0,93,0.00,,,0.00,,2013-10-19 13:12:00,
2013-10-19 09:22:00,40.0,38.0,29.94,East,99,0.0,2.0,92,0.00,,,0.00,,2013-10-19 13:22:00,
2013-10-19 09:42:00,42.0,39.0,29.94,ESE,104,0.0,2.0,89,0.00,,,0.00,,2013-10-19 13:42:00,
2013-10-19 09:52:00,44.0,40.0,29.93,ESE,104,0.0,2.0,85,0.00,,,0.00,,2013-10-19 13:52:00,
2013-10-19 10:11:00,47.0,41.0,29.93,SE,146,0.0,2.0,80,0.00,,,0.00,,2013-10-19 14:11:00,
2013-10-19 10:22:00,49.0,41.0,29.92,SE,146,0.0,2.0,74,0.00,,,0.00,,2013-10-19 14:22:00,
2013-10-19 10:42:00,51.0,42.0,29.92,South,183,1.0,2.0,72,0.00,,,0.00,,2013-10-19 14:42:00,
2013-10-19 10:52:00,53.0,42.0,29.92,South,183,0.0,0.0,66,0.00,,,0.00,,2013-10-19 14:52:00,
2013-10-19 11:11:00,56.0,41.0,29.91,SE,127,0.0,2.0,57,0.00,,,0.00,,2013-10-19 15:11:00,
2013-10-19 11:22:00,58.0,40.0,29.91,SSE,153,2.0,5.0,51,0.00,,,0.00,,2013-10-19 15:22:00,
2013-10-19 11:44:00,59.0,38.0,29.90,SE,125,2.0,7.0,46,0.00,,,0.00,,2013-10-19 15:44:00,
2013-10-19 11:55:00,60.0,39.0,29.90,SW,229,2.0,5.0,45,0.00,,,0.00,,2013-10-19 15:55:00,
2013-10-19 12:14:00,60.0,39.0,29.90,SW,221,2.0,8.0,45,0.00,,,0.00,,2013-10-19 16:14:00,
2013-10-19 12:24:00,60.0,37.0,29.89,ENE,76,2.0,7.0,43,0.00,,,0.00,,2013-10-19 16:24:00,
2013-10-19 12:43:00,60.0,39.0,29.87,East,99,3.0,9.0,45,0.00,,,0.00,,2013-10-19 16:43:00,
2013-10-19 12:53:00,59.0,38.0,29.87,ESE,123,4.0,13.0,45,0.00,,,0.00,,2013-10-19 16:53:00,
2013-10-19 13:13:00,60.0,39.0,29.86,SSW,196,1.0,8.0,45,0.00,,,0.00,,2013-10-19 17:13:00,
2013-10-19 13:22:00,60.0,39.0,29.85,South,169,1.0,7.0,46,0.00,,,0.00,,2013-10-19 17:22:00,
2013-10-19 13:43:00,60.0,40.0,29.85,NW,325,3.0,11.0,47,0.00,,,0.00,,2013-10-19 17:43:00,
2013-10-19 13:52:00,59.0,39.0,29.84,SE,139,3.0,9.0,48,0.00,,,0.00,,2013-10-19 17:52:00,
2013-10-19 14:12:00,59.0,38.0,29.85,SSW,210,4.0,12.0,46,0.00,,,0.00,,2013-10-19 18:12:00,
2013-10-19 14:22:00,59.0,38.0,29.83,SSE,148,3.0,13.0,46,0.00,,,0.00,,2013-10-19 18:22:00,
2013-10-19 14:42:00,59.0,38.0,29.83,SSE,165,3.0,10.0,46,0.00,,,0.00,,2013-10-19 18:42:00,
2013-10-19 14:52:00,58.0,38.0,29.83,ESE,123,3.0,10.0,48,0.00,,,0.00,,2013-10-19 18:52:00,
2013-10-19 15:12:00,57.0,39.0,29.82,ESE,112,1.0,6.0,50,0.00,,,0.00,,2013-10-19 19:12:00,
2013-10-19 15:22:00,57.0,39.0,29.82,SSW,199,5.0,11.0,50,0.00,,,0.00,,2013-10-19 19:22:00,
2013-10-19 15:42:00,57.0,39.0,29.83,SSW,207,3.0,9.0,50,0.00,,,0.00,,2013-10-19 19:42:00,
2013-10-19 15:52:00,57.0,39.0,29.82,ESE,113,3.0,10.0,51,0.00,,,0.00,,2013-10-19 19:52:00,
2013-10-19 16:12:00,56.0,38.0,29.81,ENE,63,2.0,8.0,51,0.00,,,0.00,,2013-10-19 20:12:00,
2013-10-19 16:22:00,56.0,38.0,29.80,SSE,148,1.0,6.0,51,0.00,,,0.00,,2013-10-19 20:22:00,
2013-10-19 16:42:00,56.0,39.0,29.77,SE,130,2.0,9.0,52,0.00,,,0.00,,2013-10-19 20:42:00,
2013-10-19 16:52:00,55.0,38.0,29.77,SW,225,2.0,7.0,53,0.00,,,0.00,,2013-10-19 20:52:00,
2013-10-19 17:11:00,55.0,39.0,29.78,South,187,2.0,15.0,54,0.00,,,0.00,,2013-10-19 21:11:00,
2013-10-19 17:22:00,54.0,39.0,29.78,SW,233,1.0,9.0,57,0.00,,,0.00,,2013-10-19 21:22:00,
2013-10-19 17:44:00,54.0,40.0,29.78,WSW,241,4.0,12.0,60,0.00,,,0.00,,2013-10-19 21:44:00,
2013-10-19 17:54:00,53.0,42.0,29.77,West,263,0.0,6.0,66,0.01,,,0.01,,2013-10-19 21:54:00,
2013-10-19 18:14:00,52.0,42.0,29.78,SW,225,1.0,5.0,68,0.01,,,0.01,,2013-10-19 22:14:00,
2013-10-19 18:24:00,51.0,42.0,29.78,SW,232,3.0,8.0,70,0.02,,,0.02,,2013-10-19 22:24:00,
2013-10-19 18:43:00,52.0,41.0,29.78,SSE,149,5.0,10.0,67,0.02,,,0.02,,2013-10-19 22:43:00,
2013-10-19 18:53:00,51.0,42.0,29.78,SSE,156,2.0,9.0,72,0.02,,,0.03,,2013-10-19 22:53:00,
2013-10-19 19:12:00,49.0,42.0,29.76,South,174,0.0,5.0,78,0.03,,,0.04,,2013-10-19 23:12:00,
2013-10-19 19:22:00,49.0,42.0,29.75,SSE,165,1.0,5.0,78,0.02,,,0.04,,2013-10-19 23:22:00,
2013-10-19 19:42:00,49.0,41.0,29.75,SW,232,2.0,8.0,74,0.02,,,0.04,,2013-10-19 23:42:00,
2013-10-19 19:52:00,50.0,41.0,29.75,ESE,108,1.0,7.0,72,0.01,,,0.04,,2013-10-19 23:52:00,
2013-10-19 20:11:00,50.0,40.0,29.73,ENE,65,1.0,5.0,69,0.00,,,0.04,,2013-10-20 00:11:00,
2013-10-19 20:23:00,50.0,39.0,29.72,SE,125,1.0,10.0,67,0.00,,,0.04,,2013-10-20 00:23:00,
2013-10-19 20:42:00,51.0,42.0,29.72,East,92,1.0,8.0,70,0.00,,,0.04,,2013-10-20 00:42:00,
2013-10-19 20:52:00,51.0,42.0,29.72,SSW,192,3.0,10.0,71,0.00,,,0.04,,2013-10-20 00:52:00,
2013-10-19 21:11:00,51.0,42.0,29.72,WSW,243,4.0,8.0,70,0.00,,,0.04,,2013-10-20 01:11:00,
2013-10-19 21:22:00,51.0,43.0,29.72,SSW,207,4.0,10.0,73,0.00,,,0.04,,2013-10-20 01:22:00,
2013-10-19 21:42:00,51.0,43.0,29.72,SSW,196,3.0,8.0,74,0.00,,,0.04,,2013-10-20 01:42:00,
2013-10-19 21:52:00,51.0,44.0,29.72,South,184,3.0,11.0,76,0.00,,,0.04,,2013-10-20 01:52:00,
2013-10-19 22:12:00,51.0,45.0,29.72,South,181,2.0,7.0,79,0.00,,,0.04,,2013-10-20 02:12:00,
2013-10-19 22:22:00,50.0,45.0,29.72,SSW,206,2.0,9.0,82,0.01,,,0.05,,2013-10-20 02:22:00,
2013-10-19 22:42:00,50.0,45.0,29.72,SSE,147,2.0,7.0,83,0.01,,,0.05,,2013-10-20 02:42:00,
2013-10-19 22:52:00,50.0,45.0,29.72,ESE,107,2.0,5.0,84,0.02,,,0.06,,2013-10-20 02:52:00,
2013-10-19 23:12:00,49.0,46.0,29.71,East,88,2.0,5.0,88,0.03,,,0.07,,2013-10-20 03:12:00,
2013-10-19 23:22:00,49.0,46.0,29.71,East,89,0.0,1.0,90,0.02,,,0.07,,2013-10-20 03:22:00,
2013-10-19 23:44:00,49.0,46.0,29.70,ESE,109,1.0,4.0,90,0.02,,,0.07,,2013-10-20 03:44:00,
2013-10-19 23:54:00,49.0,46.0,29.69,ESE,116,0.0,4.0,90,0.01,,,0.07,,2013-10-20 03:54:00,